createdAt,value
2022-09-07T00:01:21.889Z,93.57
2022-09-07T00:03:56.933Z,94.96
2022-09-07T00:06:36.956Z,95.81
2022-09-07T00:09:06.608Z,94.82
2022-09-07T00:11:34.847Z,93.15
2022-09-07T00:14:03.158Z,93.32
2022-09-07T00:16:33.006Z,91.35
2022-09-07T00:19:04.368Z,90.22
2022-09-07T00:21:33.373Z,90.16
2022-09-07T00:24:01.589Z,90.80
2022-09-07T00:26:32.040Z,90.28
2022-09-07T00:29:02.500Z,89.79
2022-09-07T00:31:33.448Z,91.60
2022-09-07T00:34:03.238Z,92.73
2022-09-07T00:36:31.661Z,95.52
2022-09-07T00:38:59.919Z,95.99
2022-09-07T00:41:28.846Z,94.93
2022-09-07T00:43:59.437Z,94.76
2022-09-07T00:46:30.239Z,94.54
2022-09-07T00:49:04.580Z,94.52
2022-09-07T00:51:39.318Z,95.06
2022-09-07T00:54:11.642Z,95.07
2022-09-07T00:56:43.619Z,96.01
2022-09-07T00:59:14.345Z,96.30
2022-09-07T01:01:42.879Z,97.47
2022-09-07T01:04:12.847Z,96.11
2022-09-07T01:06:42.518Z,93.68
2022-09-07T01:09:14.293Z,93.20
2022-09-07T01:11:45.067Z,93.32
2022-09-07T01:14:15.870Z,94.11
2022-09-07T01:16:58.281Z,94.48
2022-09-07T01:20:15.374Z,95.12
2022-09-07T01:23:21.865Z,95.18
2022-09-07T01:26:09.785Z,95.05
2022-09-07T01:28:40.668Z,95.44
2022-09-07T01:31:24.212Z,95.54
2022-09-07T01:34:02.493Z,95.69
2022-09-07T01:36:36.538Z,95.01
2022-09-07T01:39:06.809Z,95.78
2022-09-07T01:41:44.209Z,94.75
2022-09-07T01:44:20.569Z,93.87
2022-09-07T01:46:55.690Z,94.70
2022-09-07T01:49:29.996Z,93.95
2022-09-07T01:52:05.011Z,94.31
2022-09-07T01:54:39.068Z,94.34
2022-09-07T01:57:11.867Z,94.94
2022-09-07T01:59:46.635Z,96.07
2022-09-07T02:02:19.400Z,95.77
2022-09-07T02:04:52.850Z,95.16
2022-09-07T02:07:27.885Z,95.83
2022-09-07T02:10:01.868Z,94.81
2022-09-07T02:12:38.192Z,95.06
2022-09-07T02:15:15.650Z,94.15
2022-09-07T02:17:48.758Z,93.85
2022-09-07T02:20:21.395Z,93.27
2022-09-07T02:22:54.859Z,93.81
2022-09-07T02:25:28.163Z,94.47
2022-09-07T02:28:03.298Z,93.50
2022-09-07T02:30:32.965Z,92.91
2022-09-07T02:33:01.325Z,93.06
2022-09-07T02:35:29.940Z,93.65
2022-09-07T02:37:59.707Z,94.05
2022-09-07T02:40:27.999Z,93.39
2022-09-07T02:42:58.154Z,93.84
2022-09-07T02:45:26.716Z,94.42
2022-09-07T02:48:11.845Z,93.25
2022-09-07T02:50:53.950Z,93.16
2022-09-07T02:54:14.385Z,93.39
2022-09-07T02:56:57.034Z,92.85
2022-09-07T02:59:47.184Z,93.40
2022-09-07T03:02:22.044Z,94.16
2022-09-07T03:05:02.703Z,97.02
2022-09-07T03:07:38.989Z,98.95
2022-09-07T03:10:10.234Z,100.00
2022-09-07T03:12:44.832Z,100.00
2022-09-07T03:15:14.058Z,99.83
2022-09-07T03:17:43.508Z,100.00
2022-09-07T03:20:13.505Z,99.63
2022-09-07T03:22:41.783Z,99.44
2022-09-07T03:25:11.549Z,99.48
2022-09-07T03:27:39.853Z,97.74
2022-09-07T03:30:11.041Z,97.46
2022-09-07T03:32:40.597Z,97.31
2022-09-07T03:35:10.743Z,96.25
2022-09-07T03:37:40.497Z,96.26
2022-09-07T03:40:12.381Z,96.15
2022-09-07T03:42:40.899Z,96.02
2022-09-07T03:45:11.202Z,96.52
2022-09-07T03:47:40.069Z,96.22
2022-09-07T03:50:09.529Z,96.21
2022-09-07T03:52:39.572Z,96.63
2022-09-07T03:55:08.603Z,96.78
2022-09-07T03:57:37.004Z,96.57
2022-09-07T04:00:07.132Z,96.59
2022-09-07T04:02:40.793Z,96.28
2022-09-07T04:05:34.219Z,96.54
2022-09-07T04:08:04.245Z,97.13
2022-09-07T04:10:32.499Z,96.89
2022-09-07T04:13:00.686Z,96.84
2022-09-07T04:15:30.461Z,97.29
2022-09-07T04:17:59.444Z,96.90
2022-09-07T04:20:27.754Z,96.35
2022-09-07T04:22:55.943Z,96.82
2022-09-07T04:25:25.679Z,97.02
2022-09-07T04:27:54.368Z,98.11
2022-09-07T04:30:22.594Z,97.82
2022-09-07T04:32:51.258Z,97.97
2022-09-07T04:35:19.621Z,97.63
2022-09-07T04:37:47.842Z,97.48
2022-09-07T04:40:16.299Z,98.02
2022-09-07T04:42:46.018Z,97.21
2022-09-07T04:45:14.275Z,98.01
2022-09-07T04:47:48.553Z,97.78
2022-09-07T04:50:17.855Z,97.75
2022-09-07T04:52:46.501Z,97.46
2022-09-07T04:55:14.819Z,97.21
2022-09-07T04:57:43.199Z,97.38
2022-09-07T05:00:14.863Z,97.74
2022-09-07T05:02:43.315Z,99.18
2022-09-07T05:05:11.716Z,99.31
2022-09-07T05:07:39.963Z,99.49
2022-09-07T05:10:09.060Z,98.98
2022-09-07T05:12:37.302Z,98.40
2022-09-07T05:15:07.129Z,98.27
2022-09-07T05:17:37.143Z,97.04
2022-09-07T05:20:07.346Z,97.14
2022-09-07T05:22:35.654Z,97.35
2022-09-07T05:25:04.220Z,97.95
2022-09-07T05:27:32.442Z,98.41
2022-09-07T05:32:33.900Z,97.35
2022-09-07T05:35:03.635Z,98.00
2022-09-07T05:37:31.864Z,97.88
2022-09-07T05:40:00.180Z,98.50
2022-09-07T05:42:28.524Z,98.13
2022-09-07T05:44:56.766Z,98.03
2022-09-07T05:47:25.429Z,98.89
2022-09-07T05:49:57.104Z,98.41
2022-09-07T05:52:27.227Z,98.10
2022-09-07T05:55:03.205Z,98.01
2022-09-07T05:57:43.653Z,97.57
2022-09-07T06:00:14.393Z,97.75
2022-09-07T06:02:42.792Z,98.07
2022-09-07T06:05:12.316Z,98.00
2022-09-07T06:07:42.164Z,98.18
2022-09-07T06:12:59.198Z,98.91
2022-09-07T06:15:27.555Z,99.36
2022-09-07T06:17:55.769Z,99.61
2022-09-07T06:20:24.696Z,99.75
2022-09-07T06:22:54.254Z,99.93
2022-09-07T06:25:22.511Z,99.91
2022-09-07T06:27:52.037Z,100.00
2022-09-07T06:30:20.362Z,100.00
2022-09-07T06:32:48.867Z,100.00
2022-09-07T06:35:17.304Z,99.89
2022-09-07T06:37:45.731Z,99.67
2022-09-07T06:40:15.584Z,98.98
2022-09-07T06:42:43.932Z,98.12
2022-09-07T06:45:12.915Z,98.39
2022-09-07T06:47:41.494Z,97.47
2022-09-07T06:50:12.579Z,96.29
2022-09-07T06:55:30.450Z,94.08
2022-09-07T06:57:58.669Z,93.58
2022-09-07T07:00:27.283Z,92.97
2022-09-07T07:02:55.572Z,92.34
2022-09-07T07:05:23.881Z,90.97
2022-09-07T07:07:52.060Z,90.23
2022-09-07T07:10:24.477Z,89.39
2022-09-07T07:12:57.976Z,88.45
2022-09-07T07:15:29.352Z,87.99
2022-09-07T07:18:05.146Z,86.27
2022-09-07T07:20:43.308Z,85.53
2022-09-07T07:23:13.187Z,84.42
2022-09-07T07:25:41.897Z,83.19
2022-09-07T07:31:04.860Z,83.37
2022-09-07T07:33:38.186Z,81.18
2022-09-07T07:36:11.755Z,81.53
2022-09-07T07:44:19.513Z,79.48
2022-09-07T07:46:49.907Z,78.60
2022-09-07T07:49:18.517Z,78.58
2022-09-07T07:54:36.793Z,77.93
2022-09-07T07:57:06.159Z,77.73
2022-09-07T07:59:36.246Z,77.59
2022-09-07T08:02:05.778Z,77.42
2022-09-07T08:04:35.995Z,75.86
2022-09-07T08:07:10.075Z,76.06
2022-09-07T08:09:41.259Z,75.79
2022-09-07T08:12:12.057Z,74.14
2022-09-07T08:14:42.207Z,73.57
2022-09-07T08:17:13.119Z,73.01
2022-09-07T08:19:42.100Z,72.95
2022-09-07T08:22:11.670Z,73.09
2022-09-07T08:24:40.710Z,72.45
2022-09-07T08:27:09.532Z,71.76
2022-09-07T08:29:37.759Z,71.80
2022-09-07T08:32:08.177Z,71.04
2022-09-07T08:34:39.467Z,70.99
2022-09-07T08:37:07.749Z,70.60
2022-09-07T08:39:36.731Z,69.97
2022-09-07T08:42:25.712Z,70.74
2022-09-07T08:45:00.375Z,70.77
2022-09-07T08:47:41.525Z,71.18
2022-09-07T08:50:19.832Z,69.56
2022-09-07T08:52:53.063Z,69.53
2022-09-07T08:55:28.293Z,67.78
2022-09-07T08:58:04.009Z,67.05
2022-09-07T09:00:32.881Z,67.42
2022-09-07T09:06:03.202Z,66.79
2022-09-07T09:08:46.940Z,66.88
2022-09-07T09:11:24.974Z,68.18
2022-09-07T09:14:01.905Z,69.05
2022-09-07T09:16:36.353Z,69.50
2022-09-07T09:19:40.732Z,69.70
2022-09-07T09:22:16.086Z,70.21
2022-09-07T09:24:49.264Z,70.31
2022-09-07T09:27:17.784Z,70.15
2022-09-07T09:29:46.017Z,70.23
2022-09-07T09:32:37.715Z,69.84
2022-09-07T09:35:18.276Z,69.64
2022-09-07T09:37:46.563Z,69.67
2022-09-07T09:40:25.792Z,69.44
2022-09-07T09:43:03.560Z,69.05
2022-09-07T09:48:33.865Z,67.93
2022-09-07T09:53:58.969Z,67.01
2022-09-07T09:56:41.894Z,66.57
2022-09-07T10:05:34.072Z,65.84
2022-09-07T10:08:05.581Z,65.53
2022-09-07T10:10:33.817Z,64.38
2022-09-07T10:13:02.031Z,64.72
2022-09-07T10:15:41.397Z,64.45
2022-09-07T10:18:21.272Z,64.65
2022-09-07T10:20:50.061Z,64.18
2022-09-07T10:23:25.748Z,63.88
2022-09-07T10:25:53.981Z,63.65
2022-09-07T10:28:24.849Z,63.41
2022-09-07T10:31:15.036Z,62.85
2022-09-07T10:36:47.413Z,63.28
2022-09-07T10:39:24.829Z,63.71
2022-09-07T10:42:03.737Z,63.89
2022-09-07T10:44:54.280Z,62.03
2022-09-07T10:47:33.255Z,62.76
2022-09-07T10:50:24.260Z,62.73
2022-09-07T10:53:23.544Z,61.28
2022-09-07T10:56:05.737Z,60.68
2022-09-07T10:59:05.338Z,59.61
2022-09-07T11:01:47.339Z,59.48
2022-09-07T11:04:36.161Z,61.08
2022-09-07T11:07:22.140Z,61.05
2022-09-07T11:10:00.231Z,61.75
2022-09-07T11:12:33.783Z,61.79
2022-09-07T11:15:15.867Z,62.79
2022-09-07T11:17:52.817Z,63.10
2022-09-07T11:20:29.876Z,64.10
2022-09-07T11:23:11.400Z,63.50
2022-09-07T11:25:48.569Z,62.99
2022-09-07T11:28:23.923Z,62.89
2022-09-07T11:31:00.242Z,63.68
2022-09-07T11:33:35.231Z,63.40
2022-09-07T11:36:12.390Z,62.69
2022-09-07T11:38:47.200Z,61.15
2022-09-07T11:41:23.952Z,61.39
2022-09-07T11:44:04.310Z,60.49
2022-09-07T11:46:40.262Z,60.24
2022-09-07T11:49:16.999Z,59.11
2022-09-07T11:51:54.008Z,59.07
2022-09-07T11:54:44.529Z,58.43
2022-09-07T11:57:39.633Z,59.26
2022-09-07T12:00:15.753Z,59.66
2022-09-07T12:03:27.682Z,59.74
2022-09-07T12:06:25.578Z,59.35
2022-09-07T12:09:10.440Z,58.12
2022-09-07T12:12:12.853Z,58.02
2022-09-07T12:14:54.951Z,58.08
2022-09-07T12:17:43.180Z,57.98
2022-09-07T12:20:17.734Z,57.61
2022-09-07T12:23:05.821Z,56.59
2022-09-07T12:25:35.779Z,56.20
2022-09-07T12:28:21.320Z,54.75
2022-09-07T12:30:58.783Z,55.39
2022-09-07T12:33:36.823Z,55.43
2022-09-07T12:36:42.373Z,56.35
2022-09-07T12:39:25.186Z,56.57
2022-09-07T12:44:43.840Z,58.12
2022-09-07T12:47:39.656Z,58.73
2022-09-07T12:50:28.495Z,58.34
2022-09-07T12:53:25.725Z,57.07
2022-09-07T12:56:19.494Z,57.23
2022-09-07T12:59:00.608Z,54.15
2022-09-07T13:01:44.320Z,54.18
2022-09-07T13:04:38.655Z,54.19
2022-09-07T13:07:36.914Z,54.90
2022-09-07T13:10:21.404Z,54.51
2022-09-07T13:12:54.119Z,53.34
2022-09-07T13:15:42.738Z,53.00
2022-09-07T13:18:31.624Z,52.15
2022-09-07T13:21:35.027Z,52.03
2022-09-07T13:24:46.261Z,53.22
2022-09-07T13:27:46.723Z,51.90
2022-09-07T13:30:35.756Z,51.15
2022-09-07T13:33:45.499Z,52.51
2022-09-07T13:36:40.289Z,53.71
2022-09-07T13:39:17.138Z,53.76
2022-09-07T13:41:53.098Z,52.67
2022-09-07T13:44:26.580Z,53.50
2022-09-07T13:47:10.150Z,52.62
2022-09-07T13:49:56.849Z,52.03
2022-09-07T13:52:33.321Z,51.55
2022-09-07T13:55:14.468Z,50.88
2022-09-07T13:57:54.457Z,51.99
2022-09-07T14:00:22.812Z,52.44
2022-09-07T14:02:56.759Z,51.33
2022-09-07T14:05:28.494Z,49.79
2022-09-07T14:07:56.778Z,49.97
2022-09-07T14:10:27.093Z,50.78
2022-09-07T14:13:08.091Z,50.61
2022-09-07T14:15:40.680Z,49.83
2022-09-07T14:18:14.643Z,49.17
2022-09-07T14:20:46.515Z,49.26
2022-09-07T14:23:23.795Z,49.58
2022-09-07T14:26:17.464Z,49.14
2022-09-07T14:28:50.202Z,49.30
2022-09-07T14:31:20.780Z,48.57
2022-09-07T14:33:53.828Z,48.61
2022-09-07T14:36:44.233Z,47.97
2022-09-07T14:39:14.290Z,48.11
2022-09-07T14:41:43.269Z,48.22
2022-09-07T14:44:30.936Z,48.04
2022-09-07T14:47:02.892Z,47.93
2022-09-07T14:49:31.463Z,48.53
2022-09-07T14:52:00.758Z,48.03
2022-09-07T14:54:31.938Z,48.54
2022-09-07T14:57:07.603Z,49.11
2022-09-07T14:59:43.875Z,48.52
2022-09-07T15:02:37.250Z,47.97
2022-09-07T15:05:28.314Z,47.45
2022-09-07T15:08:01.556Z,47.49
2022-09-07T15:10:41.241Z,47.82
2022-09-07T15:13:34.157Z,47.77
2022-09-07T15:16:07.048Z,48.51
2022-09-07T15:18:57.249Z,47.95
2022-09-07T15:21:28.252Z,47.39
2022-09-07T15:23:59.581Z,47.61
2022-09-07T15:29:24.014Z,46.47
2022-09-07T15:32:01.727Z,47.59
2022-09-07T15:34:32.194Z,48.09
2022-09-07T15:37:01.699Z,48.63
2022-09-07T15:39:56.294Z,49.10
2022-09-07T15:45:14.386Z,48.37
2022-09-07T15:47:50.714Z,48.28
2022-09-07T15:50:23.105Z,48.69
2022-09-07T15:52:51.845Z,48.27
2022-09-07T15:55:20.016Z,48.06
2022-09-07T15:57:59.442Z,47.83
2022-09-07T16:00:34.276Z,47.43
2022-09-07T16:03:08.842Z,46.98
2022-09-07T16:05:43.990Z,47.76
2022-09-07T16:08:32.853Z,47.60
2022-09-07T16:11:12.472Z,47.90
2022-09-07T16:13:46.958Z,48.35
2022-09-07T16:16:16.773Z,48.05
2022-09-07T16:18:47.106Z,48.01
2022-09-07T16:21:16.818Z,49.01
2022-09-07T16:23:48.818Z,48.75
2022-09-07T16:26:20.285Z,48.89
2022-09-07T16:28:51.223Z,48.86
2022-09-07T16:31:22.525Z,49.12
2022-09-07T16:33:52.511Z,49.40
2022-09-07T16:36:23.505Z,49.35
2022-09-07T16:38:56.972Z,49.29
2022-09-07T16:41:31.558Z,49.34
2022-09-07T16:44:00.242Z,49.20
2022-09-07T16:46:31.147Z,49.44
2022-09-07T16:49:00.685Z,49.40
2022-09-07T16:51:30.408Z,49.70
2022-09-07T16:54:01.036Z,49.95
2022-09-07T16:56:34.595Z,50.33
2022-09-07T16:59:09.465Z,50.07
2022-09-07T17:01:38.969Z,49.69
2022-09-07T17:04:11.263Z,50.53
2022-09-07T17:06:41.288Z,50.65
2022-09-07T17:09:10.045Z,50.62
2022-09-07T17:11:38.464Z,51.29
2022-09-07T17:14:07.412Z,51.02
2022-09-07T17:16:39.157Z,51.53
2022-09-07T17:22:00.807Z,52.27
2022-09-07T17:24:29.639Z,52.26
2022-09-07T17:27:00.215Z,52.46
2022-09-07T17:29:30.407Z,52.38
2022-09-07T17:34:51.275Z,52.53
2022-09-07T17:37:19.714Z,52.80
2022-09-07T17:39:48.005Z,52.37
2022-09-07T17:42:17.038Z,52.99
2022-09-07T17:44:45.343Z,52.05
2022-09-07T17:47:13.885Z,52.78
2022-09-07T17:49:42.124Z,52.52
2022-09-07T17:52:11.806Z,52.90
2022-09-07T17:54:40.258Z,52.89
2022-09-07T17:57:08.474Z,53.03
2022-09-07T18:02:24.887Z,54.00
2022-09-07T18:04:53.253Z,54.51
2022-09-07T18:07:23.005Z,54.90
2022-09-07T18:09:51.301Z,54.97
2022-09-07T18:12:19.460Z,55.35
2022-09-07T18:14:47.624Z,55.48
2022-09-07T18:17:15.904Z,55.32
2022-09-07T18:19:44.173Z,55.25
2022-09-07T18:22:12.394Z,55.36
2022-09-07T18:24:42.303Z,55.26
2022-09-07T18:27:10.768Z,54.83
2022-09-07T18:29:38.986Z,55.01
2022-09-07T18:32:09.915Z,54.97
2022-09-07T18:34:41.420Z,56.04
2022-09-07T18:37:12.120Z,57.27
2022-09-07T18:39:42.112Z,57.92
2022-09-07T18:42:11.074Z,58.70
2022-09-07T18:47:29.355Z,59.88
2022-09-07T18:49:58.709Z,59.88
2022-09-07T18:55:17.370Z,59.65
2022-09-07T18:57:45.601Z,59.57
2022-09-07T19:00:15.127Z,59.96
2022-09-07T19:02:43.805Z,60.20
2022-09-07T19:08:03.279Z,61.54
2022-09-07T19:10:35.916Z,61.32
2022-09-07T19:13:04.573Z,62.33
2022-09-07T19:15:37.430Z,62.85
2022-09-07T19:18:08.016Z,62.69
2022-09-07T19:20:36.363Z,62.81
2022-09-07T19:23:04.945Z,63.30
2022-09-07T19:25:34.514Z,62.85
2022-09-07T19:28:02.819Z,64.24
2022-09-07T19:30:31.291Z,64.40
2022-09-07T19:33:03.990Z,65.10
2022-09-07T19:35:36.776Z,65.19
2022-09-07T19:38:05.604Z,65.83
2022-09-07T19:40:35.415Z,68.68
2022-09-07T19:43:03.624Z,72.96
2022-09-07T19:45:32.327Z,74.12
2022-09-07T19:48:00.500Z,75.38
2022-09-07T19:50:28.700Z,76.79
2022-09-07T19:52:57.000Z,76.03
2022-09-07T19:55:25.830Z,76.57
2022-09-07T19:57:55.344Z,77.05
2022-09-07T20:00:24.687Z,77.59
2022-09-07T20:02:54.149Z,78.75
2022-09-07T20:05:23.775Z,78.96
2022-09-07T20:07:51.969Z,80.56
2022-09-07T20:10:20.433Z,80.08
2022-09-07T20:12:48.637Z,80.88
2022-09-07T20:15:18.180Z,81.47
2022-09-07T20:17:47.361Z,82.37
2022-09-07T20:20:15.841Z,82.33
2022-09-07T20:22:44.076Z,80.45
2022-09-07T20:25:13.386Z,81.64
2022-09-07T20:27:41.896Z,82.59
2022-09-07T20:30:11.806Z,82.94
2022-09-07T20:32:41.365Z,83.66
2022-09-07T20:35:10.797Z,84.12
2022-09-07T20:37:38.993Z,84.87
2022-09-07T20:40:09.033Z,84.68
2022-09-07T20:42:37.566Z,85.77
2022-09-07T20:45:07.107Z,85.80
2022-09-07T20:47:35.463Z,85.89
2022-09-07T20:50:06.348Z,86.03
2022-09-07T20:52:34.630Z,86.05
2022-09-07T20:55:02.820Z,86.14
2022-09-07T20:57:31.054Z,85.77
2022-09-07T20:59:59.230Z,86.66
2022-09-07T21:02:27.408Z,87.00
2022-09-07T21:04:55.614Z,86.22
2022-09-07T21:07:25.171Z,86.63
2022-09-07T21:09:53.364Z,88.01
2022-09-07T21:12:21.558Z,87.54
2022-09-07T21:14:50.139Z,88.41
2022-09-07T21:17:18.459Z,87.98
2022-09-07T21:19:46.678Z,87.88
2022-09-07T21:22:15.688Z,87.56
2022-09-07T21:24:45.245Z,87.38
2022-09-07T21:27:15.048Z,88.50
2022-09-07T21:29:43.757Z,87.95
2022-09-07T21:32:11.958Z,87.95
2022-09-07T21:34:40.349Z,87.90
2022-09-07T21:37:08.582Z,87.50
2022-09-07T21:39:36.825Z,86.90
2022-09-07T21:42:06.803Z,86.82
2022-09-07T21:44:35.014Z,88.09
2022-09-07T21:47:03.286Z,87.57
2022-09-07T21:49:31.483Z,88.57
2022-09-07T21:51:59.682Z,88.80
2022-09-07T21:54:27.892Z,88.95
2022-09-07T21:56:56.869Z,89.12
2022-09-07T21:59:26.471Z,88.87
2022-09-07T22:01:54.691Z,88.40
2022-09-07T22:04:22.952Z,88.65
2022-09-07T22:06:51.149Z,89.46
2022-09-07T22:09:19.561Z,90.46
2022-09-07T22:11:49.299Z,90.36
2022-09-07T22:14:17.688Z,90.23
2022-09-07T22:16:47.460Z,91.14
2022-09-07T22:19:15.701Z,90.93
2022-09-07T22:21:43.977Z,90.68
2022-09-07T22:24:15.135Z,90.39
2022-09-07T22:26:43.411Z,91.01
2022-09-07T22:29:13.362Z,90.16
2022-09-07T22:31:42.321Z,90.37
2022-09-07T22:34:12.304Z,90.08
2022-09-07T22:36:43.094Z,90.40
2022-09-07T22:39:14.878Z,90.25
2022-09-07T22:41:45.091Z,89.74
2022-09-07T22:44:16.896Z,89.17
2022-09-07T22:46:47.546Z,89.45
2022-09-07T22:49:18.148Z,89.65
2022-09-07T22:51:47.061Z,90.01
2022-09-07T22:54:15.790Z,90.31
2022-09-07T22:56:44.103Z,89.66
2022-09-07T22:59:13.779Z,90.66
2022-09-07T23:01:42.583Z,91.13
2022-09-07T23:04:13.179Z,90.81
2022-09-07T23:06:44.230Z,91.01
2022-09-07T23:09:14.782Z,91.04
2022-09-07T23:11:43.745Z,90.78
2022-09-07T23:14:16.120Z,89.60
2022-09-07T23:16:44.980Z,88.99
2022-09-07T23:19:15.023Z,89.31
2022-09-07T23:21:44.980Z,90.40
2022-09-07T23:24:14.723Z,90.07
2022-09-07T23:26:43.308Z,89.71
2022-09-07T23:29:13.902Z,90.08
2022-09-07T23:31:43.067Z,91.05
2022-09-07T23:34:11.871Z,91.25
2022-09-07T23:36:40.107Z,91.19
2022-09-07T23:39:10.557Z,90.71
2022-09-07T23:41:38.744Z,90.78
2022-09-07T23:44:07.209Z,91.01
2022-09-07T23:46:35.539Z,91.74
2022-09-07T23:49:03.988Z,92.48
2022-09-07T23:51:32.185Z,92.35
2022-09-07T23:54:00.417Z,92.16
2022-09-07T23:56:31.183Z,92.02
2022-09-07T23:59:00.052Z,91.70
